createdAt,value
2016-11-20T00:00:45.861Z,22.41
2016-11-20T00:01:45.800Z,22.36
2016-11-20T00:02:45.736Z,22.41
2016-11-20T00:03:45.681Z,22.41
2016-11-20T00:04:45.620Z,22.44
2016-11-20T00:05:45.580Z,22.43
2016-11-20T00:06:45.494Z,22.41
2016-11-20T00:07:45.432Z,22.39
2016-11-20T00:08:45.370Z,22.41
2016-11-20T00:09:45.629Z,22.43
2016-11-20T00:10:45.242Z,22.41
2016-11-20T00:11:45.183Z,22.43
2016-11-20T00:12:45.118Z,22.39
2016-11-20T00:13:45.061Z,22.44
2016-11-20T00:14:44.992Z,22.43
2016-11-20T00:15:44.945Z,22.44
2016-11-20T00:16:44.880Z,22.39
2016-11-20T00:17:44.810Z,22.41
2016-11-20T00:18:44.749Z,22.41
2016-11-20T00:19:44.688Z,22.35
2016-11-20T00:20:44.625Z,22.41
2016-11-20T00:21:44.561Z,22.43
2016-11-20T00:22:44.502Z,22.44
2016-11-20T00:23:44.450Z,22.47
2016-11-20T00:24:44.378Z,22.39
2016-11-20T00:25:44.320Z,22.39
2016-11-20T00:26:44.256Z,22.43
2016-11-20T00:27:44.193Z,22.41
2016-11-20T00:28:44.132Z,22.43
2016-11-20T00:29:44.065Z,22.44
2016-11-20T00:30:44.004Z,22.45
2016-11-20T00:31:43.947Z,22.43
2016-11-20T00:32:43.877Z,22.33
2016-11-20T00:33:43.823Z,22.39
2016-11-20T00:34:43.765Z,22.43
2016-11-20T00:35:43.697Z,22.36
2016-11-20T00:36:43.633Z,22.41
2016-11-20T00:37:43.574Z,22.43
2016-11-20T00:38:43.514Z,22.41
2016-11-20T00:39:43.448Z,22.39
2016-11-20T00:40:43.387Z,22.43
2016-11-20T00:41:43.341Z,22.45
2016-11-20T00:42:43.261Z,22.43
2016-11-20T00:43:43.525Z,22.43
2016-11-20T00:44:43.139Z,22.43
2016-11-20T00:45:43.076Z,22.36
2016-11-20T00:46:43.026Z,22.36
2016-11-20T00:47:42.955Z,22.36
2016-11-20T00:48:42.891Z,22.33
2016-11-20T00:49:42.838Z,22.33
2016-11-20T00:50:42.797Z,22.44
2016-11-20T00:51:42.706Z,22.44
2016-11-20T00:52:42.660Z,22.41
2016-11-20T00:53:42.584Z,22.38
2016-11-20T00:54:42.519Z,22.38
2016-11-20T00:55:42.459Z,22.36
2016-11-20T00:56:42.400Z,22.44
2016-11-20T00:57:42.337Z,22.36
2016-11-20T00:58:42.268Z,22.35
2016-11-20T00:59:42.217Z,22.38
2016-11-20T01:00:42.151Z,22.41
2016-11-20T01:01:42.088Z,22.41
2016-11-20T01:02:42.024Z,22.32
2016-11-20T01:03:41.965Z,22.36
2016-11-20T01:04:41.901Z,22.41
2016-11-20T01:05:41.836Z,22.39
2016-11-20T01:06:41.777Z,22.39
2016-11-20T01:07:41.716Z,22.36
2016-11-20T01:08:41.654Z,22.39
2016-11-20T01:09:41.590Z,22.43
2016-11-20T01:10:41.526Z,22.41
2016-11-20T01:11:41.467Z,22.43
2016-11-20T01:12:41.405Z,22.36
2016-11-20T01:13:41.343Z,22.35
2016-11-20T01:14:41.280Z,22.41
2016-11-20T01:15:41.222Z,22.39
2016-11-20T01:16:41.160Z,22.32
2016-11-20T01:17:41.100Z,22.38
2016-11-20T01:18:41.035Z,22.35
2016-11-20T01:19:40.984Z,22.39
2016-11-20T01:20:40.910Z,22.33
2016-11-20T01:21:40.844Z,22.33
2016-11-20T01:22:40.785Z,22.38
2016-11-20T01:23:40.725Z,22.38
2016-11-20T01:24:40.665Z,22.38
2016-11-20T01:25:40.603Z,22.39
2016-11-20T01:26:40.556Z,22.35
2016-11-20T01:27:40.477Z,22.39
2016-11-20T01:28:40.415Z,22.35
2016-11-20T01:29:40.356Z,22.45
2016-11-20T01:30:40.294Z,22.33
2016-11-20T01:31:40.229Z,22.38
2016-11-20T01:32:40.167Z,22.33
2016-11-20T01:33:40.103Z,22.35
2016-11-20T01:34:40.042Z,22.38
2016-11-20T01:35:39.986Z,22.32
2016-11-20T01:36:39.923Z,22.33
2016-11-20T01:37:39.859Z,22.32
2016-11-20T01:38:39.805Z,22.38
2016-11-20T01:39:39.736Z,22.36
2016-11-20T01:40:39.671Z,22.38
2016-11-20T01:41:39.641Z,22.41
2016-11-20T01:42:39.548Z,22.43
2016-11-20T01:43:39.811Z,22.38
2016-11-20T01:44:39.425Z,22.33
2016-11-20T01:45:39.553Z,22.39
2016-11-20T01:46:39.302Z,22.39
2016-11-20T01:47:39.258Z,22.35
2016-11-20T01:48:39.181Z,22.38
2016-11-20T01:49:39.114Z,22.36
2016-11-20T01:50:39.053Z,22.39
2016-11-20T01:51:38.993Z,22.41
2016-11-20T01:52:38.932Z,22.35
2016-11-20T01:53:38.877Z,22.43
2016-11-20T01:54:38.805Z,22.38
2016-11-20T01:55:38.754Z,22.38
2016-11-20T01:56:38.686Z,22.39
2016-11-20T01:57:38.623Z,22.33
2016-11-20T01:58:38.595Z,22.44
2016-11-20T01:59:38.499Z,22.39
2016-11-20T02:00:38.433Z,22.33
2016-11-20T02:01:38.375Z,22.36
2016-11-20T02:02:38.311Z,22.38
2016-11-20T02:03:38.252Z,22.35
2016-11-20T02:04:38.191Z,22.38
2016-11-20T02:05:38.124Z,22.41
2016-11-20T02:06:38.067Z,22.33
2016-11-20T02:07:38.003Z,22.36
2016-11-20T02:08:37.939Z,22.39
2016-11-20T02:09:38.246Z,22.39
2016-11-20T02:10:37.822Z,22.36
2016-11-20T02:11:37.755Z,22.43
2016-11-20T02:12:37.694Z,22.35
2016-11-20T02:13:37.633Z,22.36
2016-11-20T02:14:37.572Z,22.44
2016-11-20T02:15:37.503Z,22.35
2016-11-20T02:16:37.442Z,22.41
2016-11-20T02:17:37.410Z,22.36
2016-11-20T02:18:37.520Z,22.35
2016-11-20T02:19:37.480Z,22.39
2016-11-20T02:20:37.200Z,22.44
2016-11-20T02:21:37.139Z,22.36
2016-11-20T02:22:37.071Z,22.38
2016-11-20T02:23:37.014Z,22.36
2016-11-20T02:24:36.949Z,22.41
2016-11-20T02:25:36.887Z,22.33
2016-11-20T02:26:36.825Z,22.33
2016-11-20T02:27:36.775Z,22.32
2016-11-20T02:28:36.704Z,22.39
2016-11-20T02:29:36.639Z,22.39
2016-11-20T02:30:36.576Z,22.38
2016-11-20T02:31:36.517Z,22.43
2016-11-20T02:32:36.457Z,22.32
2016-11-20T02:33:36.712Z,22.39
2016-11-20T02:34:36.332Z,22.33
2016-11-20T02:35:36.274Z,22.38
2016-11-20T02:36:36.212Z,22.39
2016-11-20T02:37:36.143Z,22.38
2016-11-20T02:38:36.085Z,22.38
2016-11-20T02:39:36.028Z,22.41
2016-11-20T02:40:35.962Z,22.33
2016-11-20T02:41:35.898Z,22.39
2016-11-20T02:42:35.836Z,22.39
2016-11-20T02:43:35.777Z,22.33
2016-11-20T02:44:35.708Z,22.41
2016-11-20T02:45:35.653Z,22.39
2016-11-20T02:46:35.590Z,22.43
2016-11-20T02:47:35.532Z,22.36
2016-11-20T02:48:35.466Z,22.38
2016-11-20T02:49:35.402Z,22.33
2016-11-20T02:50:35.339Z,22.39
2016-11-20T02:51:35.282Z,22.36
2016-11-20T02:52:35.422Z,22.35
2016-11-20T02:53:35.154Z,22.39
2016-11-20T02:54:35.099Z,22.38
2016-11-20T02:55:35.046Z,22.33
2016-11-20T02:56:34.972Z,22.39
2016-11-20T02:57:34.911Z,22.36
2016-11-20T02:58:34.849Z,22.33
2016-11-20T02:59:34.789Z,22.36
2016-11-20T03:00:35.044Z,22.39
2016-11-20T03:01:34.664Z,22.38
2016-11-20T03:02:34.598Z,22.35
2016-11-20T03:03:34.576Z,22.41
2016-11-20T03:04:34.476Z,22.38
2016-11-20T03:05:34.414Z,22.39
2016-11-20T03:06:34.350Z,22.41
2016-11-20T03:07:34.291Z,22.33
2016-11-20T03:08:34.223Z,22.36
2016-11-20T03:09:34.168Z,22.38
2016-11-20T03:10:34.105Z,22.41
2016-11-20T03:11:34.045Z,22.38
2016-11-20T03:12:34.011Z,22.35
2016-11-20T03:13:33.921Z,22.36
2016-11-20T03:14:33.857Z,22.36
2016-11-20T03:15:33.797Z,22.41
2016-11-20T03:16:33.735Z,22.36
2016-11-20T03:17:33.674Z,22.36
2016-11-20T03:18:33.610Z,22.41
2016-11-20T03:19:33.548Z,22.36
2016-11-20T03:20:33.485Z,22.35
2016-11-20T03:21:33.427Z,22.38
2016-11-20T03:22:33.364Z,22.32
2016-11-20T03:23:33.303Z,22.32
2016-11-20T03:24:33.238Z,22.41
2016-11-20T03:25:33.176Z,22.36
2016-11-20T03:26:33.120Z,22.38
2016-11-20T03:27:33.057Z,22.36
2016-11-20T03:28:32.986Z,22.38
2016-11-20T03:29:32.929Z,22.32
2016-11-20T03:30:32.865Z,22.36
2016-11-20T03:31:32.805Z,22.32
2016-11-20T03:32:32.742Z,22.41
2016-11-20T03:33:32.682Z,22.28
2016-11-20T03:34:32.618Z,22.26
2016-11-20T03:35:32.555Z,22.38
2016-11-20T03:36:32.505Z,22.38
2016-11-20T03:37:32.431Z,22.36
2016-11-20T03:38:32.373Z,22.38
2016-11-20T03:39:32.312Z,22.41
2016-11-20T03:40:32.247Z,22.36
2016-11-20T03:41:32.187Z,22.3
2016-11-20T03:42:32.125Z,22.36
2016-11-20T03:43:32.062Z,22.41
2016-11-20T03:44:31.997Z,22.36
2016-11-20T03:45:31.936Z,22.35
2016-11-20T03:46:31.878Z,22.3
2016-11-20T03:47:31.815Z,22.41
2016-11-20T03:48:31.749Z,22.32
2016-11-20T03:49:31.686Z,22.39
2016-11-20T03:50:31.631Z,22.33
2016-11-20T03:51:31.567Z,22.38
2016-11-20T03:52:31.499Z,22.41
2016-11-20T03:53:31.437Z,22.38
2016-11-20T03:54:31.377Z,22.33
2016-11-20T03:55:31.320Z,22.32
2016-11-20T03:56:31.255Z,22.41
2016-11-20T03:57:31.192Z,22.32
2016-11-20T03:58:31.133Z,22.35
2016-11-20T03:59:31.099Z,22.28
2016-11-20T04:00:31.007Z,22.3
2016-11-20T04:01:30.945Z,22.41
2016-11-20T04:02:30.884Z,22.39
2016-11-20T04:03:30.822Z,22.35
2016-11-20T04:04:30.758Z,22.38
2016-11-20T04:05:30.698Z,22.38
2016-11-20T04:06:30.634Z,22.26
2016-11-20T04:07:30.574Z,22.38
2016-11-20T04:08:30.510Z,22.33
2016-11-20T04:09:30.446Z,22.26
2016-11-20T04:10:30.389Z,22.35
2016-11-20T04:11:30.327Z,22.35
2016-11-20T04:12:30.268Z,22.32
2016-11-20T04:13:30.224Z,22.39
2016-11-20T04:14:30.145Z,22.25
2016-11-20T04:15:30.077Z,22.39
2016-11-20T04:16:30.018Z,22.3
2016-11-20T04:17:29.954Z,22.23
2016-11-20T04:18:29.893Z,22.33
2016-11-20T04:19:29.830Z,22.28
2016-11-20T04:20:29.799Z,22.39
2016-11-20T04:21:29.701Z,22.23
2016-11-20T04:22:29.641Z,22.3
2016-11-20T04:23:29.903Z,22.33
2016-11-20T04:24:29.516Z,22.28
2016-11-20T04:25:29.455Z,22.38
2016-11-20T04:26:29.396Z,22.3
2016-11-20T04:27:29.332Z,22.35
2016-11-20T04:28:29.277Z,22.33
2016-11-20T04:29:29.206Z,22.29
2016-11-20T04:30:29.147Z,22.36
2016-11-20T04:31:29.090Z,22.32
2016-11-20T04:32:29.022Z,22.23
2016-11-20T04:33:28.967Z,22.23
2016-11-20T04:34:28.902Z,22.32
2016-11-20T04:35:28.835Z,22.36
2016-11-20T04:36:28.788Z,22.38
2016-11-20T04:37:28.712Z,22.25
2016-11-20T04:38:28.651Z,22.25
2016-11-20T04:39:28.590Z,22.25
2016-11-20T04:40:28.524Z,22.35
2016-11-20T04:41:28.465Z,22.32
2016-11-20T04:42:28.400Z,22.35
2016-11-20T04:43:28.664Z,22.36
2016-11-20T04:44:28.276Z,22.28
2016-11-20T04:45:28.215Z,22.32
2016-11-20T04:46:28.473Z,22.26
2016-11-20T04:47:28.100Z,22.26
2016-11-20T04:48:28.028Z,22.25
2016-11-20T04:49:27.967Z,22.28
2016-11-20T04:50:27.915Z,22.35
2016-11-20T04:51:27.846Z,22.23
2016-11-20T04:52:27.787Z,22.23
2016-11-20T04:53:27.717Z,22.3
2016-11-20T04:54:27.658Z,22.28
2016-11-20T04:55:27.598Z,22.26
2016-11-20T04:56:27.535Z,22.28
2016-11-20T04:57:27.476Z,22.33
2016-11-20T04:58:27.410Z,22.28
2016-11-20T04:59:27.350Z,22.33
2016-11-20T05:00:27.325Z,22.28
2016-11-20T05:01:27.227Z,22.26
2016-11-20T05:02:27.165Z,22.32
2016-11-20T05:03:27.101Z,22.25
2016-11-20T05:04:27.038Z,22.28
2016-11-20T05:05:26.978Z,22.33
2016-11-20T05:06:26.909Z,22.35
2016-11-20T05:07:26.852Z,22.22
2016-11-20T05:08:26.790Z,22.25
2016-11-20T05:09:26.725Z,22.32
2016-11-20T05:10:26.662Z,22.26
2016-11-20T05:11:26.605Z,22.23
2016-11-20T05:12:26.542Z,22.25
2016-11-20T05:13:26.487Z,22.3
2016-11-20T05:14:26.422Z,22.35
2016-11-20T05:15:26.357Z,22.25
2016-11-20T05:16:26.293Z,22.25
2016-11-20T05:17:26.234Z,22.28
2016-11-20T05:18:26.171Z,22.33
2016-11-20T05:19:26.107Z,22.26
2016-11-20T05:20:26.044Z,22.26
2016-11-20T05:21:25.982Z,22.3
2016-11-20T05:22:25.919Z,22.33
2016-11-20T05:23:25.861Z,22.3
2016-11-20T05:24:25.799Z,22.28
2016-11-20T05:25:25.734Z,22.32
2016-11-20T05:26:25.672Z,22.25
2016-11-20T05:27:25.613Z,22.25
2016-11-20T05:28:25.548Z,22.26
2016-11-20T05:29:25.487Z,22.25
2016-11-20T05:30:25.426Z,22.25
2016-11-20T05:31:25.366Z,22.28
2016-11-20T05:32:25.304Z,22.26
2016-11-20T05:33:25.238Z,22.2
2016-11-20T05:34:25.178Z,22.3
2016-11-20T05:35:25.116Z,22.25
2016-11-20T05:36:25.055Z,22.23
2016-11-20T05:37:24.991Z,22.26
2016-11-20T05:38:25.266Z,22.26
2016-11-20T05:39:24.866Z,22.23
2016-11-20T05:40:24.809Z,22.2
2016-11-20T05:41:24.762Z,22.23
2016-11-20T05:42:24.683Z,22.28
2016-11-20T05:43:24.620Z,22.25
2016-11-20T05:44:24.559Z,22.18
2016-11-20T05:45:24.493Z,22.29
2016-11-20T05:46:24.433Z,22.22
2016-11-20T05:47:24.369Z,22.22
2016-11-20T05:48:24.306Z,22.3
2016-11-20T05:49:24.247Z,22.22
2016-11-20T05:50:24.182Z,22.32
2016-11-20T05:51:24.118Z,22.28
2016-11-20T05:52:24.059Z,22.25
2016-11-20T05:53:23.997Z,22.33
2016-11-20T05:54:23.935Z,22.18
2016-11-20T05:55:23.871Z,22.23
2016-11-20T05:56:23.810Z,22.29
2016-11-20T05:57:23.747Z,22.22
2016-11-20T05:58:23.687Z,22.29
2016-11-20T05:59:23.627Z,22.23
2016-11-20T06:00:23.563Z,22.23
2016-11-20T06:01:23.823Z,22.26
2016-11-20T06:02:23.443Z,22.29
2016-11-20T06:03:23.377Z,22.23
2016-11-20T06:04:23.318Z,22.29
2016-11-20T06:05:23.255Z,22.22
2016-11-20T06:06:23.191Z,22.28
2016-11-20T06:07:23.132Z,22.29
2016-11-20T06:08:23.074Z,22.25
2016-11-20T06:09:23.006Z,22.22
2016-11-20T06:10:22.946Z,22.25
2016-11-20T06:11:22.886Z,22.26
2016-11-20T06:12:22.824Z,22.29
2016-11-20T06:13:22.759Z,22.29
2016-11-20T06:14:22.697Z,22.26
2016-11-20T06:15:22.637Z,22.29
2016-11-20T06:16:22.579Z,22.25
2016-11-20T06:17:22.512Z,22.3
2016-11-20T06:18:22.452Z,22.25
2016-11-20T06:19:22.387Z,22.29
2016-11-20T06:20:22.328Z,22.22
2016-11-20T06:21:22.271Z,22.25
2016-11-20T06:22:22.199Z,22.25
2016-11-20T06:23:22.143Z,22.28
2016-11-20T06:24:22.074Z,22.22
2016-11-20T06:25:22.017Z,22.26
2016-11-20T06:26:21.957Z,22.33
2016-11-20T06:27:21.892Z,22.29
2016-11-20T06:28:21.828Z,22.26
2016-11-20T06:29:21.766Z,22.29
2016-11-20T06:30:21.710Z,22.25
2016-11-20T06:31:21.647Z,22.26
2016-11-20T06:32:21.586Z,22.23
2016-11-20T06:33:21.520Z,22.3
2016-11-20T06:34:22.105Z,22.3
2016-11-20T06:35:21.402Z,22.3
2016-11-20T06:36:21.335Z,22.3
2016-11-20T06:37:21.273Z,22.23
2016-11-20T06:38:21.211Z,22.3
2016-11-20T06:39:21.154Z,22.25
2016-11-20T06:40:21.392Z,22.29
2016-11-20T06:41:21.024Z,22.26
2016-11-20T06:42:20.963Z,22.29
2016-11-20T06:43:20.902Z,22.29
2016-11-20T06:44:20.841Z,22.29
2016-11-20T06:45:20.781Z,22.26
2016-11-20T06:46:20.719Z,22.26
2016-11-20T06:47:20.658Z,22.2
2016-11-20T06:48:20.594Z,22.22
2016-11-20T06:49:20.864Z,22.32
2016-11-20T06:50:20.474Z,22.3
2016-11-20T06:51:20.406Z,22.23
2016-11-20T06:52:20.347Z,22.3
2016-11-20T06:53:20.283Z,22.18
2016-11-20T06:54:20.223Z,22.2
2016-11-20T06:55:20.159Z,22.25
2016-11-20T06:56:20.096Z,22.33
2016-11-20T06:57:20.034Z,22.26
2016-11-20T06:58:19.976Z,22.28
2016-11-20T06:59:19.912Z,22.26
2016-11-20T07:00:19.847Z,22.28
2016-11-20T07:01:19.787Z,22.23
2016-11-20T07:02:19.731Z,22.28
2016-11-20T07:03:19.666Z,22.26
2016-11-20T07:04:19.604Z,22.25
2016-11-20T07:05:19.536Z,22.25
2016-11-20T07:06:19.479Z,22.15
2016-11-20T07:07:19.410Z,22.33
2016-11-20T07:08:19.673Z,22.29
2016-11-20T07:09:19.294Z,22.2
2016-11-20T07:10:19.228Z,22.28
2016-11-20T07:11:19.371Z,22.15
2016-11-20T07:12:19.104Z,22.23
2016-11-20T07:13:19.044Z,22.26
2016-11-20T07:14:18.977Z,22.33
2016-11-20T07:15:19.246Z,22.26
2016-11-20T07:16:18.858Z,22.28
2016-11-20T07:17:18.998Z,22.3
2016-11-20T07:18:18.732Z,22.3
2016-11-20T07:19:18.672Z,22.25
2016-11-20T07:20:18.608Z,22.23
2016-11-20T07:21:18.556Z,22.25
2016-11-20T07:22:18.487Z,22.32
2016-11-20T07:23:18.427Z,22.28
2016-11-20T07:24:18.367Z,22.28
2016-11-20T07:25:18.307Z,22.33
2016-11-20T07:26:18.234Z,22.26
2016-11-20T07:27:18.176Z,22.26
2016-11-20T07:28:18.113Z,22.22
2016-11-20T07:29:18.064Z,22.3
2016-11-20T07:30:17.990Z,22.23
2016-11-20T07:31:17.927Z,22.29
2016-11-20T07:32:17.867Z,22.26
2016-11-20T07:33:17.805Z,22.25
2016-11-20T07:34:17.739Z,22.26
2016-11-20T07:35:17.680Z,22.33
2016-11-20T07:36:17.618Z,22.26
2016-11-20T07:37:17.566Z,22.29
2016-11-20T07:38:17.496Z,22.23
2016-11-20T07:39:17.465Z,22.25
2016-11-20T07:40:17.371Z,22.26
2016-11-20T07:41:17.308Z,22.25
2016-11-20T07:42:17.244Z,22.33
2016-11-20T07:43:17.195Z,22.28
2016-11-20T07:44:17.122Z,22.29
2016-11-20T07:45:17.066Z,22.26
2016-11-20T07:46:17.002Z,22.25
2016-11-20T07:47:16.938Z,22.23
2016-11-20T07:48:16.874Z,22.33
2016-11-20T07:49:16.814Z,22.29
2016-11-20T07:50:16.750Z,22.28
2016-11-20T07:51:16.686Z,22.28
2016-11-20T07:52:16.648Z,22.29
2016-11-20T07:53:16.568Z,22.26
2016-11-20T07:54:16.500Z,22.32
2016-11-20T07:55:16.444Z,22.25
2016-11-20T07:56:16.381Z,22.25
2016-11-20T07:57:16.316Z,22.18
2016-11-20T07:58:16.257Z,22.26
2016-11-20T07:59:16.190Z,22.26
2016-11-20T08:00:16.136Z,22.25
2016-11-20T08:01:16.065Z,22.3
2016-11-20T08:02:16.007Z,22.18
2016-11-20T08:03:15.946Z,22.17
2016-11-20T08:04:15.881Z,22.23
2016-11-20T08:05:15.819Z,22.17
2016-11-20T08:06:15.754Z,22.28
2016-11-20T08:07:15.698Z,22.3
2016-11-20T08:08:15.637Z,22.22
2016-11-20T08:09:15.568Z,22.33
2016-11-20T08:10:15.509Z,22.3
2016-11-20T08:11:15.474Z,22.3
2016-11-20T08:12:15.384Z,22.28
2016-11-20T08:13:15.321Z,22.23
2016-11-20T08:14:15.260Z,22.15
2016-11-20T08:15:15.198Z,22.2
2016-11-20T08:16:15.137Z,22.29
2016-11-20T08:17:15.076Z,22.17
2016-11-20T08:18:15.014Z,22.3
2016-11-20T08:19:14.951Z,22.22
2016-11-20T08:20:14.886Z,22.29
2016-11-20T08:21:14.823Z,22.23
2016-11-20T08:22:14.760Z,22.3
2016-11-20T08:23:14.698Z,22.29
2016-11-20T08:24:14.638Z,22.2
2016-11-20T08:25:14.574Z,22.29
2016-11-20T08:26:14.520Z,22.3
2016-11-20T08:27:14.464Z,22.28
2016-11-20T08:28:14.389Z,22.17
2016-11-20T08:29:14.326Z,22.18
2016-11-20T08:30:14.265Z,22.2
2016-11-20T08:31:14.202Z,22.28
2016-11-20T08:32:14.141Z,22.22
2016-11-20T08:33:14.078Z,22.28
2016-11-20T08:34:14.018Z,22.28
2016-11-20T08:35:13.965Z,22.14
2016-11-20T08:36:13.902Z,22.29
2016-11-20T08:37:13.837Z,22.17
2016-11-20T08:38:13.763Z,22.25
2016-11-20T08:39:13.705Z,22.26
2016-11-20T08:40:13.645Z,22.2
2016-11-20T08:41:13.580Z,22.29
2016-11-20T08:42:13.525Z,22.28
2016-11-20T08:43:13.458Z,22.15
2016-11-20T08:44:13.396Z,22.3
2016-11-20T08:45:13.334Z,22.33
2016-11-20T08:46:13.271Z,22.33
2016-11-20T08:47:13.213Z,22.28
2016-11-20T08:48:13.148Z,22.23
2016-11-20T08:49:13.086Z,22.29
2016-11-20T08:50:13.025Z,22.22
2016-11-20T08:51:12.959Z,22.36
2016-11-20T08:52:12.904Z,22.18
2016-11-20T08:53:12.836Z,22.3
2016-11-20T08:54:12.772Z,22.2
2016-11-20T08:55:12.715Z,22.25
2016-11-20T08:56:12.650Z,22.13
2016-11-20T08:57:12.592Z,22.2
2016-11-20T08:58:12.524Z,22.2
2016-11-20T08:59:12.464Z,22.28
2016-11-20T09:00:12.403Z,22.25
2016-11-20T09:01:12.340Z,22.28
2016-11-20T09:02:12.279Z,22.2
2016-11-20T09:03:12.221Z,22.23
2016-11-20T09:04:12.155Z,22.25
2016-11-20T09:05:12.094Z,22.15
2016-11-20T09:06:12.029Z,22.13
2016-11-20T09:07:11.974Z,22.28
2016-11-20T09:08:11.904Z,22.25
2016-11-20T09:09:11.845Z,22.3
2016-11-20T09:10:11.786Z,22.17
2016-11-20T09:11:11.737Z,22.29
2016-11-20T09:12:11.665Z,22.33
2016-11-20T09:13:11.597Z,22.22
2016-11-20T09:14:11.540Z,22.29
2016-11-20T09:15:11.474Z,22.14
2016-11-20T09:16:11.418Z,22.23
2016-11-20T09:17:11.361Z,22.18
2016-11-20T09:18:11.298Z,22.17
2016-11-20T09:19:11.233Z,22.26
2016-11-20T09:20:11.162Z,22.29
2016-11-20T09:21:11.099Z,22.29
2016-11-20T09:22:11.045Z,22.15
2016-11-20T09:23:10.979Z,22.2
2016-11-20T09:24:10.917Z,22.3
2016-11-20T09:25:10.857Z,22.29
2016-11-20T09:26:10.791Z,22.28
2016-11-20T09:27:10.726Z,22.22
2016-11-20T09:28:10.666Z,22.29
2016-11-20T09:29:10.604Z,22.28
2016-11-20T09:30:10.545Z,22.17
2016-11-20T09:31:10.482Z,22.18
2016-11-20T09:32:10.424Z,22.22
2016-11-20T09:33:10.358Z,22.23
2016-11-20T09:34:10.299Z,22.22
2016-11-20T09:35:10.232Z,22.18
2016-11-20T09:36:10.169Z,22.18
2016-11-20T09:37:10.109Z,22.26
2016-11-20T09:38:10.052Z,22.15
2016-11-20T09:39:09.986Z,22.13
2016-11-20T09:40:09.920Z,22.2
2016-11-20T09:41:09.859Z,22.25
2016-11-20T09:42:09.802Z,22.28
2016-11-20T09:43:09.737Z,22.22
2016-11-20T09:44:09.671Z,22.28
2016-11-20T09:45:09.617Z,22.23
2016-11-20T09:46:09.548Z,22.28
2016-11-20T09:47:09.484Z,22.25
2016-11-20T09:48:09.426Z,22.26
2016-11-20T09:49:09.369Z,22.28
2016-11-20T09:50:09.304Z,22.23
2016-11-20T09:51:09.245Z,22.28
2016-11-20T09:52:09.176Z,22.25
2016-11-20T09:53:09.118Z,22.22
2016-11-20T09:54:09.053Z,22.17
2016-11-20T09:55:08.990Z,22.23
2016-11-20T09:56:08.940Z,22.26
2016-11-20T09:57:08.868Z,22.22
2016-11-20T09:58:08.814Z,22.15
2016-11-20T09:59:08.743Z,22.23
2016-11-20T10:00:08.682Z,22.13
2016-11-20T10:01:08.622Z,22.18
2016-11-20T10:02:08.555Z,22.29
2016-11-20T10:03:08.498Z,22.17
2016-11-20T10:04:08.433Z,22.15
2016-11-20T10:05:08.372Z,22.15
2016-11-20T10:06:08.310Z,22.28
2016-11-20T10:07:08.247Z,22.22
2016-11-20T10:08:08.507Z,22.14
2016-11-20T10:09:08.123Z,22.15
2016-11-20T10:10:08.059Z,22.15
2016-11-20T10:11:07.999Z,22.14
2016-11-20T10:12:07.940Z,22.23
2016-11-20T10:13:07.877Z,22.2
2016-11-20T10:14:07.820Z,22.15
2016-11-20T10:15:07.752Z,22.28
2016-11-20T10:16:07.685Z,22.25
2016-11-20T10:17:07.627Z,22.15
2016-11-20T10:18:07.562Z,22.2
2016-11-20T10:19:07.503Z,22.25
2016-11-20T10:20:07.445Z,22.2
2016-11-20T10:21:07.378Z,22.2
2016-11-20T10:22:07.323Z,22.26
2016-11-20T10:23:07.252Z,22.22
2016-11-20T10:24:07.196Z,22.2
2016-11-20T10:25:07.132Z,22.2
2016-11-20T10:26:07.069Z,22.22
2016-11-20T10:27:07.006Z,22.25
2016-11-20T10:28:06.943Z,22.2
2016-11-20T10:29:06.886Z,22.25
2016-11-20T10:30:06.822Z,22.28
2016-11-20T10:31:07.076Z,22.2
2016-11-20T10:32:06.701Z,22.29
2016-11-20T10:33:06.637Z,22.28
2016-11-20T10:34:06.570Z,22.28
2016-11-20T10:35:06.511Z,22.26
2016-11-20T10:36:06.456Z,22.22
2016-11-20T10:37:06.385Z,22.17
2016-11-20T10:38:06.326Z,22.17
2016-11-20T10:39:06.261Z,22.17
2016-11-20T10:40:06.200Z,22.14
2016-11-20T10:41:06.139Z,22.2
2016-11-20T10:42:06.083Z,22.26
2016-11-20T10:43:06.016Z,22.28
2016-11-20T10:44:05.952Z,22.2
2016-11-20T10:45:05.888Z,22.15
2016-11-20T10:46:05.828Z,22.18
2016-11-20T10:47:05.765Z,22.17
2016-11-20T10:48:05.707Z,22.18
2016-11-20T10:49:05.664Z,22.25
2016-11-20T10:50:05.577Z,22.15
2016-11-20T10:51:05.516Z,22.15
2016-11-20T10:52:05.453Z,22.15
2016-11-20T10:53:05.398Z,22.28
2016-11-20T10:54:05.329Z,22.3
2016-11-20T10:55:05.269Z,22.18
2016-11-20T10:56:05.202Z,22.22
2016-11-20T10:57:05.140Z,22.26
2016-11-20T10:58:05.079Z,22.28
2016-11-20T10:59:05.367Z,22.26
2016-11-20T11:00:05.280Z,22.14
2016-11-20T11:01:04.892Z,22.17
2016-11-20T11:02:04.833Z,22.29
2016-11-20T11:03:04.774Z,22.2
2016-11-20T11:04:04.710Z,22.23
2016-11-20T11:05:04.648Z,22.15
2016-11-20T11:06:04.590Z,22.22
2016-11-20T11:07:04.527Z,22.22
2016-11-20T11:08:04.467Z,22.18
2016-11-20T11:09:04.400Z,22.28
2016-11-20T11:10:04.342Z,22.32
2016-11-20T11:11:04.285Z,22.26
2016-11-20T11:12:04.213Z,22.28
2016-11-20T11:13:04.160Z,22.29
2016-11-20T11:14:04.091Z,22.15
2016-11-20T11:15:04.029Z,22.17
2016-11-20T11:16:03.969Z,22.22
2016-11-20T11:17:03.905Z,22.22
2016-11-20T11:18:03.841Z,22.2
2016-11-20T11:19:03.777Z,22.29
2016-11-20T11:20:03.718Z,22.22
2016-11-20T11:21:03.653Z,22.15
2016-11-20T11:22:03.598Z,22.23
2016-11-20T11:23:03.536Z,22.28
2016-11-20T11:24:03.472Z,22.22
2016-11-20T11:25:03.411Z,22.2
2016-11-20T11:26:03.342Z,22.23
2016-11-20T11:27:03.299Z,22.26
2016-11-20T11:28:03.222Z,22.17
2016-11-20T11:29:03.160Z,22.17
2016-11-20T11:30:03.095Z,22.2
2016-11-20T11:31:03.034Z,22.2
2016-11-20T11:32:02.984Z,22.2
2016-11-20T11:33:02.912Z,22.18
2016-11-20T11:34:02.850Z,22.14
2016-11-20T11:35:02.789Z,22.2
2016-11-20T11:36:02.727Z,22.25
2016-11-20T11:37:02.665Z,22.29
2016-11-20T11:38:02.602Z,22.23
2016-11-20T11:39:02.548Z,22.2
2016-11-20T11:40:02.478Z,22.17
2016-11-20T11:41:02.419Z,22.2
2016-11-20T11:42:02.359Z,22.2
2016-11-20T11:43:02.295Z,22.17
2016-11-20T11:44:02.233Z,22.2
2016-11-20T11:45:02.172Z,22.28
2016-11-20T11:46:02.107Z,22.26
2016-11-20T11:47:02.044Z,22.29
2016-11-20T11:48:01.979Z,22.17
2016-11-20T11:49:01.924Z,22.26
2016-11-20T11:50:01.862Z,22.23
2016-11-20T11:51:01.803Z,22.2
2016-11-20T11:52:01.739Z,22.29
2016-11-20T11:53:01.683Z,22.17
2016-11-20T11:54:01.613Z,22.15
2016-11-20T11:55:01.553Z,22.23
2016-11-20T11:56:01.485Z,22.2
2016-11-20T11:57:01.424Z,22.2
2016-11-20T11:58:01.363Z,22.14
2016-11-20T11:59:01.300Z,22.26
2016-11-20T12:00:01.239Z,22.23
2016-11-20T12:01:01.178Z,22.28
2016-11-20T12:02:01.119Z,22.29
2016-11-20T12:03:01.054Z,22.15
2016-11-20T12:04:00.992Z,22.29
2016-11-20T12:05:00.931Z,22.26
2016-11-20T12:06:00.868Z,22.28
2016-11-20T12:07:00.809Z,22.11
2016-11-20T12:08:00.738Z,22.29
2016-11-20T12:09:00.688Z,22.2
2016-11-20T12:10:00.620Z,22.2
2016-11-20T12:11:00.557Z,22.22
2016-11-20T12:12:00.494Z,22.23
2016-11-20T12:13:00.434Z,22.15
2016-11-20T12:14:00.372Z,22.17
2016-11-20T12:15:00.312Z,22.2
2016-11-20T12:16:00.249Z,22.2
2016-11-20T12:17:00.185Z,22.2
2016-11-20T12:18:00.126Z,22.17
2016-11-20T12:19:00.063Z,22.17
2016-11-20T12:20:00.002Z,22.17
2016-11-20T12:20:59.938Z,22.2
2016-11-20T12:21:59.882Z,22.2
2016-11-20T12:22:59.810Z,22.2
2016-11-20T12:23:59.750Z,22.28
2016-11-20T12:24:59.692Z,22.15
2016-11-20T12:25:59.631Z,22.14
2016-11-20T12:26:59.566Z,22.18
2016-11-20T12:27:59.510Z,22.23
2016-11-20T12:28:59.444Z,22.13
2016-11-20T12:29:59.378Z,22.23
2016-11-20T12:30:59.317Z,22.14
2016-11-20T12:31:59.255Z,22.14
2016-11-20T12:32:59.193Z,22.14
2016-11-20T12:33:59.130Z,22.2
2016-11-20T12:34:59.070Z,22.15
2016-11-20T12:35:59.010Z,22.2
2016-11-20T12:36:58.951Z,22.26
2016-11-20T12:37:58.882Z,22.25
2016-11-20T12:38:58.822Z,22.23
2016-11-20T12:39:58.772Z,22.25
2016-11-20T12:40:58.701Z,22.23
2016-11-20T12:41:58.638Z,22.15
2016-11-20T12:42:58.585Z,22.2
2016-11-20T12:43:58.514Z,22.2
2016-11-20T12:44:58.457Z,22.17
2016-11-20T12:45:58.393Z,22.23
2016-11-20T12:46:58.335Z,22.15
2016-11-20T12:47:58.266Z,22.23
2016-11-20T12:48:58.205Z,22.15
2016-11-20T12:49:58.148Z,22.22
2016-11-20T12:50:58.082Z,22.26
2016-11-20T12:51:58.019Z,22.25
2016-11-20T12:52:57.955Z,22.18
2016-11-20T12:53:57.920Z,22.17
2016-11-20T12:54:57.831Z,22.17